hintergrundbild

 METAR AND TAF INFORMATION
METAR FOR LIPQ
ADDS - METARS form results

(1441 UTC 05 June 2020)
Data provider http://aviationweather.gov/metar/data/
 
METAR text: LIPQ 051420Z AUTO 21010KT 180V240 9999 FEW100/// 22/15 Q1000
Conditions at: LIPQ (RONCHI LEGIONARI, IT) observed 1420 UTC 05 June 2020
Temperature: 22.0°C (72°F)
Dewpoint: 15.0°C (59°F) [RH = 65%]
Pressure (altimeter): 29.53 inches Hg (1000.0 mb)
Winds: from the SSW (210 degrees) at 12 MPH (10 knots; 5.1 m/s)
Visibility: 6 or more miles (10+ km)
Ceiling: at least 12,000 feet AGL
Clouds: few clouds at 10000 feet AGL
Weather: no significant weather observed at this time

METAR text: LIPQ 051350Z AUTO 20010KT 9999 NCD 22/15 Q0999
Conditions at: LIPQ (RONCHI LEGIONARI, IT) observed 1350 UTC 05 June 2020
Temperature: 22.0°C (72°F)
Dewpoint: 15.0°C (59°F) [RH = 65%]
Pressure (altimeter): 29.50 inches Hg (999.0 mb)
Winds: from the SSW (200 degrees) at 12 MPH (10 knots; 5.1 m/s)
Visibility: 6 or more miles (10+ km)
Ceiling: at least 12,000 feet AGL
Clouds: sky clear below 12,000 feet AGL
Weather: no significant weather observed at this time

Forecast for: LIPQ (RONCHI LEGIONARI, IT)
Text: TAF LIPQ 051100Z 0512/0612 20008KT 9999 SCT030
Forecast period: 1200 UTC 05 June 2020 to 1200 UTC 06 June 2020
Forecast type: FROM: standard forecast or significant change
Winds: from the SSW (200 degrees) at 9 MPH (8 knots; 4.1 m/s)
Visibility: 6 or more miles 10+ km)
Ceiling: at least 12,000 feet AGL
Clouds: scattered clouds at 3000 feet AGL
Weather: no significant weather forecast for this period
Text: TEMPO 0509/0518 SHRA
Forecast period: 0900 to 1800 UTC 05 June 2020
Forecast type: TEMPORARY: The following changes expected for less than half the time period
Visibility: missing
Ceiling: unknown
Clouds: missing
Weather: SHRA  (rain showers)
Text: TEMPO 0603/0612 4000 SHRA
Forecast period: 0300 to 1200 UTC 06 June 2020
Forecast type: TEMPORARY: The following changes expected for less than half the time period
Visibility: 2.49 miles (4.01 km)
Ceiling: unknown
Clouds: missing
Weather: SHRA  (rain showers)

 AIRPORT MAP

 RUNWAY INFORMATION
Runway 09 Runway length 9843 ft Runway width 148 ft
Runway elevation 37 ft Runway displaced threshold 656 ft Runway heading 90
Runway 27 Runway length 9843 ft Runway width 148 ft
Runway elevation 36 ft Runway displaced threshold 0 ft Runway heading 270

 AIRPORT FREQUENCIES
Type APP Name APP Frequency 119.175 MHZ
Type TWR Name TWR Frequency 130.2 MHZ

 AIRPORT NEAR NAVIGATION AIDS
Type VOR-DME Name Ronchi Frequency 114200 KHZ
Type NDB Name Ronchi Frequency 396 KHZ



Impressum